createdAt,value
2023-01-07T00:01:16.585Z,41.02
2023-01-07T00:03:43.446Z,40.93
2023-01-07T00:06:31.028Z,41.02
2023-01-07T00:08:57.848Z,41.01
2023-01-07T00:11:44.259Z,40.88
2023-01-07T00:14:11.716Z,40.93
2023-01-07T00:16:38.669Z,40.84
2023-01-07T00:19:06.181Z,40.98
2023-01-07T00:21:32.714Z,40.90
2023-01-07T00:24:01.038Z,41.01
2023-01-07T00:26:29.947Z,40.85
2023-01-07T00:28:57.128Z,40.86
2023-01-07T00:31:28.307Z,40.92
2023-01-07T00:33:54.994Z,40.79
2023-01-07T00:36:22.336Z,41.04
2023-01-07T00:38:55.850Z,41.05
2023-01-07T00:41:22.557Z,40.97
2023-01-07T00:43:49.290Z,41.02
2023-01-07T00:46:16.012Z,40.93
2023-01-07T00:48:42.701Z,40.86
2023-01-07T00:51:09.764Z,40.96
2023-01-07T00:53:36.335Z,40.83
2023-01-07T00:56:02.979Z,40.71
2023-01-07T00:58:29.660Z,40.97
2023-01-07T01:00:57.311Z,40.99
2023-01-07T01:03:24.707Z,40.79
2023-01-07T01:05:51.621Z,40.90
2023-01-07T01:08:18.468Z,40.75
2023-01-07T01:10:45.392Z,40.85
2023-01-07T01:13:13.439Z,40.73
2023-01-07T01:15:46.802Z,40.85
2023-01-07T01:18:13.425Z,40.83
2023-01-07T01:20:39.955Z,40.75
2023-01-07T01:23:06.606Z,41.00
2023-01-07T01:25:33.191Z,40.69
2023-01-07T01:27:59.778Z,40.94
2023-01-07T01:30:26.647Z,40.82
2023-01-07T01:32:53.485Z,40.82
2023-01-07T01:35:20.256Z,40.79
2023-01-07T01:37:47.479Z,40.81
2023-01-07T01:40:14.003Z,41.01
2023-01-07T01:42:40.794Z,40.89
2023-01-07T01:45:10.181Z,40.81
2023-01-07T01:47:50.335Z,40.90
2023-01-07T01:50:16.847Z,40.90
2023-01-07T01:53:05.227Z,40.72
2023-01-07T01:55:35.989Z,40.75
2023-01-07T01:58:06.711Z,40.87
2023-01-07T02:00:33.367Z,40.77
2023-01-07T02:03:00.030Z,40.63
2023-01-07T02:05:30.468Z,40.70
2023-01-07T02:07:57.088Z,40.79
2023-01-07T02:10:24.271Z,40.44
2023-01-07T02:13:38.858Z,40.80
2023-01-07T02:16:19.538Z,40.45
2023-01-07T02:19:04.389Z,40.84
2023-01-07T02:21:40.137Z,40.84
2023-01-07T02:24:36.137Z,40.99
2023-01-07T02:27:13.862Z,40.50
2023-01-07T02:29:55.641Z,40.69
2023-01-07T02:32:25.238Z,40.69
2023-01-07T02:35:00.716Z,40.48
2023-01-07T02:37:45.941Z,40.91
2023-01-07T02:40:21.831Z,40.74
2023-01-07T02:43:03.787Z,40.79
2023-01-07T02:45:32.179Z,40.83
2023-01-07T02:48:04.986Z,40.62
2023-01-07T02:50:31.537Z,40.67
2023-01-07T02:52:58.180Z,40.79
2023-01-07T02:56:01.537Z,40.71
2023-01-07T02:58:40.120Z,40.73
2023-01-07T03:01:31.780Z,40.77
2023-01-07T03:04:40.199Z,40.54
2023-01-07T03:07:33.848Z,40.57
2023-01-07T03:10:03.263Z,40.73
2023-01-07T03:12:36.555Z,40.44
2023-01-07T03:15:23.185Z,40.56
2023-01-07T03:17:55.916Z,40.40
2023-01-07T03:20:23.666Z,40.70
2023-01-07T03:22:50.313Z,40.68
2023-01-07T03:25:19.031Z,40.64
2023-01-07T03:27:46.072Z,40.66
2023-01-07T03:30:14.080Z,40.64
2023-01-07T03:32:58.047Z,40.51
2023-01-07T03:35:24.614Z,40.75
2023-01-07T03:37:51.156Z,40.70
2023-01-07T03:40:17.714Z,40.68
2023-01-07T03:42:46.812Z,40.54
2023-01-07T03:45:23.544Z,40.51
2023-01-07T03:47:52.353Z,40.71
2023-01-07T03:50:19.860Z,40.61
2023-01-07T03:52:48.465Z,40.54
2023-01-07T03:55:16.387Z,40.63
2023-01-07T03:57:42.973Z,40.66
2023-01-07T04:00:11.234Z,40.71
2023-01-07T04:02:50.933Z,40.52
2023-01-07T04:05:22.574Z,40.63
2023-01-07T04:07:49.193Z,40.50
2023-01-07T04:10:16.595Z,40.55
2023-01-07T04:12:43.263Z,40.69
2023-01-07T04:15:10.543Z,40.63
2023-01-07T04:17:37.108Z,40.51
2023-01-07T04:20:03.975Z,40.69
2023-01-07T04:22:30.846Z,40.38
2023-01-07T04:24:58.040Z,40.31
2023-01-07T04:27:24.702Z,40.62
2023-01-07T04:29:51.988Z,40.46
2023-01-07T04:32:18.563Z,40.49
2023-01-07T04:34:45.128Z,40.42
2023-01-07T04:37:12.244Z,40.35
2023-01-07T04:39:38.860Z,40.43
2023-01-07T04:42:05.472Z,40.49
2023-01-07T04:44:32.236Z,40.50
2023-01-07T04:46:58.794Z,40.41
2023-01-07T04:49:25.907Z,40.65
2023-01-07T04:51:53.707Z,40.55
2023-01-07T04:54:20.340Z,40.58
2023-01-07T04:56:48.091Z,40.31
2023-01-07T04:59:14.785Z,40.56
2023-01-07T05:01:42.198Z,40.38
2023-01-07T05:04:09.330Z,40.47
2023-01-07T05:06:36.418Z,40.41
2023-01-07T05:09:03.049Z,40.28
2023-01-07T05:11:31.408Z,40.51
2023-01-07T05:14:00.262Z,40.62
2023-01-07T05:16:29.170Z,40.35
2023-01-07T05:18:59.743Z,40.28
2023-01-07T05:21:26.382Z,40.54
2023-01-07T05:23:53.296Z,40.34
2023-01-07T05:26:21.419Z,40.35
2023-01-07T05:28:48.403Z,40.55
2023-01-07T05:31:15.385Z,40.28
2023-01-07T05:33:41.991Z,40.31
2023-01-07T05:36:08.590Z,40.25
2023-01-07T05:38:35.186Z,40.42
2023-01-07T05:41:01.992Z,40.48
2023-01-07T05:43:28.875Z,40.17
2023-01-07T05:45:56.148Z,40.18
2023-01-07T05:48:22.910Z,40.20
2023-01-07T05:50:49.432Z,40.31
2023-01-07T05:53:15.971Z,40.31
2023-01-07T05:55:42.519Z,40.41
2023-01-07T05:58:09.164Z,40.53
2023-01-07T06:00:36.623Z,40.44
2023-01-07T06:03:04.063Z,40.36
2023-01-07T06:05:30.885Z,40.45
2023-01-07T06:07:57.474Z,40.28
2023-01-07T06:10:23.980Z,40.20
2023-01-07T06:12:51.357Z,40.26
2023-01-07T06:15:18.386Z,40.46
2023-01-07T06:17:44.954Z,40.29
2023-01-07T06:20:12.053Z,40.22
2023-01-07T06:22:38.574Z,40.37
2023-01-07T06:25:05.465Z,40.24
2023-01-07T06:27:32.052Z,40.46
2023-01-07T06:29:58.673Z,40.11
2023-01-07T06:32:25.294Z,40.23
2023-01-07T06:34:51.895Z,40.33
2023-01-07T06:37:18.392Z,40.11
2023-01-07T06:39:44.943Z,40.24
2023-01-07T06:42:11.507Z,40.14
2023-01-07T06:44:39.186Z,40.22
2023-01-07T06:47:05.687Z,40.12
2023-01-07T06:49:32.219Z,40.02
2023-01-07T06:51:58.768Z,40.06
2023-01-07T06:54:25.303Z,40.03
2023-01-07T06:56:51.817Z,40.30
2023-01-07T06:59:18.301Z,40.35
2023-01-07T07:01:47.835Z,40.16
2023-01-07T07:04:14.510Z,40.13
2023-01-07T07:06:41.044Z,40.35
2023-01-07T07:09:07.621Z,40.28
2023-01-07T07:11:34.244Z,40.10
2023-01-07T07:14:00.836Z,40.19
2023-01-07T07:16:27.458Z,40.12
2023-01-07T07:18:54.087Z,40.04
2023-01-07T07:21:23.278Z,40.05
2023-01-07T07:23:49.815Z,40.07
2023-01-07T07:26:16.312Z,40.25
2023-01-07T07:28:43.018Z,40.18
2023-01-07T07:31:09.731Z,40.13
2023-01-07T07:33:36.296Z,40.16
2023-01-07T07:36:02.894Z,40.16
2023-01-07T07:38:29.464Z,40.26
2023-01-07T07:40:56.809Z,40.24
2023-01-07T07:43:23.394Z,39.99
2023-01-07T07:45:49.909Z,40.13
2023-01-07T07:48:16.557Z,40.00
2023-01-07T07:50:43.146Z,40.17
2023-01-07T07:53:10.550Z,40.19
2023-01-07T07:55:39.959Z,40.16
2023-01-07T07:58:06.565Z,40.20
2023-01-07T08:00:33.307Z,40.18
2023-01-07T08:02:59.944Z,40.17
2023-01-07T08:05:26.797Z,40.11
2023-01-07T08:07:53.610Z,40.17
2023-01-07T08:10:20.664Z,40.20
2023-01-07T08:12:47.212Z,40.12
2023-01-07T08:15:13.806Z,40.29
2023-01-07T08:17:40.327Z,40.18
2023-01-07T08:20:07.571Z,40.20
2023-01-07T08:22:34.449Z,40.15
2023-01-07T08:25:01.270Z,40.13
2023-01-07T08:27:27.938Z,40.16
2023-01-07T08:29:55.018Z,40.13
2023-01-07T08:32:21.550Z,40.26
2023-01-07T08:34:48.230Z,40.22
2023-01-07T08:37:14.810Z,40.27
2023-01-07T08:39:41.401Z,40.21
2023-01-07T08:42:08.261Z,40.07
2023-01-07T08:44:34.873Z,40.05
2023-01-07T08:47:01.610Z,40.08
2023-01-07T08:49:28.178Z,40.09
2023-01-07T08:51:54.792Z,40.06
2023-01-07T08:54:21.374Z,40.19
2023-01-07T08:56:47.979Z,40.06
2023-01-07T08:59:14.592Z,39.91
2023-01-07T09:01:41.343Z,40.16
2023-01-07T09:04:08.108Z,40.08
2023-01-07T09:06:34.635Z,39.97
2023-01-07T09:09:01.194Z,40.06
2023-01-07T09:11:27.715Z,40.21
2023-01-07T09:13:54.335Z,39.89
2023-01-07T09:16:20.952Z,39.95
2023-01-07T09:18:47.550Z,40.15
2023-01-07T09:21:14.101Z,40.20
2023-01-07T09:23:40.714Z,39.95
2023-01-07T09:26:07.347Z,39.95
2023-01-07T09:28:33.933Z,40.15
2023-01-07T09:31:00.801Z,40.02
2023-01-07T09:33:27.385Z,40.14
2023-01-07T09:35:54.001Z,40.15
2023-01-07T09:38:20.530Z,40.07
2023-01-07T09:40:47.061Z,39.97
2023-01-07T09:43:59.759Z,39.82
2023-01-07T09:46:21.874Z,39.81
2023-01-07T09:48:50.813Z,39.76
2023-01-07T09:51:24.042Z,39.76
2023-01-07T09:53:54.466Z,39.81
2023-01-07T09:56:24.205Z,39.98
2023-01-07T09:58:50.780Z,39.84
2023-01-07T10:01:28.179Z,39.92
2023-01-07T10:04:13.626Z,39.94
2023-01-07T10:06:57.021Z,39.99
2023-01-07T10:09:42.373Z,39.63
2023-01-07T10:12:23.772Z,39.59
2023-01-07T10:14:57.593Z,39.77
2023-01-07T10:17:48.937Z,39.44
2023-01-07T10:20:26.741Z,39.78
2023-01-07T10:23:13.344Z,39.77
2023-01-07T10:25:50.536Z,39.72
2023-01-07T10:28:37.544Z,39.69
2023-01-07T10:31:04.186Z,39.84
2023-01-07T10:33:33.908Z,39.95
2023-01-07T10:36:06.535Z,39.58
2023-01-07T10:38:35.050Z,39.68
2023-01-07T10:41:06.752Z,39.73
2023-01-07T10:43:43.712Z,39.58
2023-01-07T10:46:19.106Z,39.43
2023-01-07T10:49:23.293Z,39.77
2023-01-07T10:52:08.853Z,39.63
2023-01-07T10:54:38.395Z,39.71
2023-01-07T10:57:10.007Z,40.05
2023-01-07T10:59:36.522Z,39.95
2023-01-07T11:02:03.260Z,39.96
2023-01-07T11:04:29.845Z,39.69
2023-01-07T11:07:21.138Z,39.80
2023-01-07T11:09:48.073Z,39.94
2023-01-07T11:12:38.577Z,39.84
2023-01-07T11:15:25.401Z,39.74
2023-01-07T11:18:00.290Z,39.87
2023-01-07T11:20:51.654Z,39.81
2023-01-07T11:23:42.831Z,39.60
2023-01-07T11:26:26.710Z,39.78
2023-01-07T11:28:57.889Z,39.75
2023-01-07T11:31:49.637Z,39.78
2023-01-07T11:34:27.429Z,39.51
2023-01-07T11:36:58.009Z,39.81
2023-01-07T11:39:26.824Z,39.88
2023-01-07T11:41:54.350Z,39.96
2023-01-07T11:44:21.061Z,39.89
2023-01-07T11:46:47.630Z,39.84
2023-01-07T11:49:28.108Z,39.67
2023-01-07T11:51:54.703Z,39.80
2023-01-07T11:54:25.973Z,39.59
2023-01-07T11:56:55.067Z,39.82
2023-01-07T11:59:29.279Z,39.74
2023-01-07T12:01:59.621Z,40.16
2023-01-07T12:04:31.413Z,39.93
2023-01-07T12:07:00.428Z,39.51
2023-01-07T12:09:34.285Z,39.55
2023-01-07T12:12:07.342Z,39.61
2023-01-07T12:14:34.835Z,38.29
2023-01-07T12:17:28.403Z,36.28
2023-01-07T12:20:00.786Z,35.79
2023-01-07T12:22:30.110Z,34.69
2023-01-07T12:25:00.262Z,34.35
2023-01-07T12:27:29.618Z,33.88
2023-01-07T12:30:23.078Z,33.51
2023-01-07T12:33:14.941Z,33.92
2023-01-07T12:35:45.487Z,33.43
2023-01-07T12:38:23.033Z,33.56
2023-01-07T12:41:00.560Z,33.65
2023-01-07T12:43:35.287Z,34.42
2023-01-07T12:46:06.099Z,34.99
2023-01-07T12:48:51.236Z,34.81
2023-01-07T12:51:26.557Z,34.94
2023-01-07T12:53:53.734Z,35.14
2023-01-07T12:56:23.746Z,35.34
2023-01-07T12:58:59.842Z,35.19
2023-01-07T13:01:28.632Z,35.54
2023-01-07T13:03:58.172Z,35.52
2023-01-07T13:06:53.144Z,35.41
2023-01-07T13:09:41.913Z,35.54
2023-01-07T13:12:41.867Z,35.53
2023-01-07T13:15:33.481Z,35.67
2023-01-07T13:18:11.863Z,35.79
2023-01-07T13:20:56.767Z,35.68
2023-01-07T13:23:48.160Z,36.00
2023-01-07T13:26:31.845Z,35.90
2023-01-07T13:29:01.547Z,35.82
2023-01-07T13:31:45.662Z,35.92
2023-01-07T13:34:30.980Z,36.34
2023-01-07T13:37:16.661Z,34.92
2023-01-07T13:39:49.192Z,34.12
2023-01-07T13:42:25.107Z,33.48
2023-01-07T13:45:09.648Z,33.76
2023-01-07T13:48:08.962Z,32.89
2023-01-07T13:50:38.276Z,33.52
2023-01-07T13:53:06.893Z,32.67
2023-01-07T13:55:38.460Z,32.86
2023-01-07T13:58:41.974Z,33.49
2023-01-07T14:01:11.265Z,33.75
2023-01-07T14:03:58.477Z,33.75
2023-01-07T14:06:32.888Z,33.79
2023-01-07T14:09:08.311Z,33.95
2023-01-07T14:11:38.943Z,34.20
2023-01-07T14:14:37.867Z,34.22
2023-01-07T14:17:32.263Z,34.26
2023-01-07T14:20:08.733Z,34.56
2023-01-07T14:22:53.777Z,34.64
2023-01-07T14:25:42.206Z,34.70
2023-01-07T14:28:08.627Z,34.55
2023-01-07T14:30:35.613Z,34.50
2023-01-07T14:33:03.702Z,34.48
2023-01-07T14:35:35.593Z,33.80
2023-01-07T14:38:05.192Z,33.40
2023-01-07T14:40:37.679Z,33.15
2023-01-07T14:43:38.547Z,32.49
2023-01-07T14:46:05.169Z,31.79
2023-01-07T14:48:32.903Z,31.33
2023-01-07T14:51:17.400Z,30.11
2023-01-07T14:54:21.711Z,29.56
2023-01-07T14:57:01.903Z,28.58
2023-01-07T14:59:53.409Z,28.16
2023-01-07T15:02:51.057Z,27.62
2023-01-07T15:05:17.619Z,27.70
2023-01-07T15:07:50.790Z,27.32
2023-01-07T15:10:49.837Z,27.16
2023-01-07T15:13:36.497Z,26.94
2023-01-07T15:16:03.952Z,26.75
2023-01-07T15:19:03.033Z,26.58
2023-01-07T15:21:35.401Z,26.50
2023-01-07T15:24:20.914Z,26.42
2023-01-07T15:27:12.036Z,26.30
2023-01-07T15:29:48.165Z,26.26
2023-01-07T15:32:25.284Z,26.56
2023-01-07T15:34:51.878Z,26.08
2023-01-07T15:37:18.569Z,25.54
2023-01-07T15:39:51.934Z,25.30
2023-01-07T15:42:23.296Z,25.09
2023-01-07T15:44:54.075Z,25.02
2023-01-07T15:47:32.861Z,24.69
2023-01-07T15:50:25.618Z,24.53
2023-01-07T15:53:03.961Z,24.76
2023-01-07T15:55:32.855Z,24.88
2023-01-07T15:58:13.182Z,24.50
2023-01-07T16:00:39.726Z,24.79
2023-01-07T16:03:06.334Z,24.56
2023-01-07T16:05:32.948Z,24.65
2023-01-07T16:08:00.310Z,24.53
2023-01-07T16:10:32.274Z,24.68
2023-01-07T16:13:06.482Z,24.52
2023-01-07T16:15:35.175Z,24.74
2023-01-07T16:18:19.099Z,25.07
2023-01-07T16:20:51.749Z,24.75
2023-01-07T16:23:23.855Z,24.15
2023-01-07T16:26:16.400Z,24.27
2023-01-07T16:28:51.337Z,23.53
2023-01-07T16:31:19.834Z,23.38
2023-01-07T16:33:46.472Z,23.13
2023-01-07T16:36:17.854Z,23.50
2023-01-07T16:38:48.308Z,23.62
2023-01-07T16:41:22.620Z,23.34
2023-01-07T16:43:50.598Z,23.83
2023-01-07T16:46:20.279Z,23.50
2023-01-07T16:48:47.402Z,24.14
2023-01-07T16:51:33.688Z,24.06
2023-01-07T16:54:25.235Z,24.34
2023-01-07T16:56:52.564Z,24.38
2023-01-07T16:59:20.218Z,24.43
2023-01-07T17:01:46.814Z,24.79
2023-01-07T17:04:19.080Z,24.65
2023-01-07T17:06:45.679Z,24.98
2023-01-07T17:09:38.414Z,25.25
2023-01-07T17:12:05.245Z,25.44
2023-01-07T17:14:34.767Z,25.54
2023-01-07T17:17:06.581Z,25.40
2023-01-07T17:19:41.590Z,25.97
2023-01-07T17:22:33.991Z,25.91
2023-01-07T17:25:03.588Z,26.26
2023-01-07T17:27:30.185Z,26.54
2023-01-07T17:29:56.805Z,26.45
2023-01-07T17:32:24.371Z,27.05
2023-01-07T17:34:51.103Z,26.95
2023-01-07T17:37:17.854Z,27.11
2023-01-07T17:39:44.728Z,27.11
2023-01-07T17:42:44.714Z,27.09
2023-01-07T17:45:14.910Z,26.99
2023-01-07T17:47:41.644Z,26.98
2023-01-07T17:50:08.621Z,27.01
2023-01-07T17:52:35.244Z,26.39
2023-01-07T17:55:01.882Z,26.82
2023-01-07T17:57:28.461Z,26.82
2023-01-07T17:59:55.059Z,26.71
2023-01-07T18:02:23.363Z,26.67
2023-01-07T18:04:50.066Z,26.59
2023-01-07T18:07:16.715Z,26.56
2023-01-07T18:09:44.463Z,26.65
2023-01-07T18:12:30.936Z,26.75
2023-01-07T18:15:00.869Z,26.80
2023-01-07T18:17:27.580Z,27.03
2023-01-07T18:19:54.441Z,26.87
2023-01-07T18:22:21.629Z,27.33
2023-01-07T18:24:48.919Z,27.33
2023-01-07T18:27:16.427Z,27.51
2023-01-07T18:29:43.220Z,27.47
2023-01-07T18:32:10.085Z,27.52
2023-01-07T18:34:36.813Z,27.48
2023-01-07T18:37:03.542Z,27.80
2023-01-07T18:39:30.241Z,27.99
2023-01-07T18:41:56.861Z,28.24
2023-01-07T18:44:23.709Z,28.05
2023-01-07T18:46:50.267Z,28.29
2023-01-07T18:49:16.896Z,28.39
2023-01-07T18:51:45.565Z,28.58
2023-01-07T18:54:12.139Z,28.45
2023-01-07T18:56:38.713Z,28.85
2023-01-07T18:59:05.693Z,28.41
2023-01-07T19:01:32.541Z,28.69
2023-01-07T19:03:59.310Z,28.77
2023-01-07T19:06:25.955Z,29.05
2023-01-07T19:08:52.622Z,28.90
2023-01-07T19:11:19.275Z,29.47
2023-01-07T19:13:45.930Z,29.16
2023-01-07T19:16:12.761Z,29.33
2023-01-07T19:18:39.499Z,29.47
2023-01-07T19:21:07.625Z,29.67
2023-01-07T19:23:34.296Z,29.72
2023-01-07T19:26:05.313Z,29.88
2023-01-07T19:28:32.716Z,29.92
2023-01-07T19:30:59.340Z,29.65
2023-01-07T19:33:25.998Z,30.08
2023-01-07T19:36:08.082Z,29.99
2023-01-07T19:38:47.721Z,30.07
2023-01-07T19:41:18.999Z,30.46
2023-01-07T19:43:47.333Z,30.54
2023-01-07T19:46:14.906Z,30.62
2023-01-07T19:48:41.872Z,30.34
2023-01-07T19:51:09.697Z,30.32
2023-01-07T19:53:36.709Z,30.21
2023-01-07T19:56:06.084Z,30.37
2023-01-07T19:58:32.880Z,30.72
2023-01-07T20:01:07.935Z,30.73
2023-01-07T20:03:35.546Z,30.60
2023-01-07T20:06:10.563Z,31.21
2023-01-07T20:08:37.916Z,31.25
2023-01-07T20:11:05.042Z,31.45
2023-01-07T20:13:35.387Z,31.36
2023-01-07T20:16:09.509Z,30.90
2023-01-07T20:18:39.988Z,31.48
2023-01-07T20:21:06.692Z,31.53
2023-01-07T20:23:37.050Z,31.21
2023-01-07T20:26:06.726Z,31.34
2023-01-07T20:28:33.697Z,31.46
2023-01-07T20:31:00.315Z,31.80
2023-01-07T20:33:26.916Z,31.65
2023-01-07T20:36:04.250Z,31.60
2023-01-07T20:38:30.878Z,31.47
2023-01-07T20:40:57.650Z,31.65
2023-01-07T20:43:24.624Z,31.58
2023-01-07T20:45:51.403Z,32.16
2023-01-07T20:48:18.261Z,31.89
2023-01-07T20:50:45.117Z,31.92
2023-01-07T20:53:12.092Z,32.17
2023-01-07T20:55:38.745Z,32.08
2023-01-07T20:58:05.420Z,32.47
2023-01-07T21:00:32.064Z,32.43
2023-01-07T21:02:58.977Z,32.47
2023-01-07T21:05:25.785Z,32.76
2023-01-07T21:07:53.791Z,32.79
2023-01-07T21:10:20.451Z,32.68
2023-01-07T21:12:47.014Z,32.93
2023-01-07T21:15:14.235Z,33.13
2023-01-07T21:17:41.148Z,32.77
2023-01-07T21:20:08.514Z,33.04
2023-01-07T21:22:37.952Z,32.96
2023-01-07T21:25:10.215Z,32.93
2023-01-07T21:27:38.012Z,33.21
2023-01-07T21:30:06.367Z,33.14
2023-01-07T21:32:33.935Z,33.50
2023-01-07T21:35:01.171Z,33.18
2023-01-07T21:37:29.313Z,33.55
2023-01-07T21:39:56.110Z,33.36
2023-01-07T21:42:22.761Z,33.73
2023-01-07T21:44:49.390Z,33.34
2023-01-07T21:47:16.137Z,33.35
2023-01-07T21:49:43.818Z,33.57
2023-01-07T21:52:11.022Z,33.80
2023-01-07T21:54:37.882Z,33.81
2023-01-07T21:57:04.508Z,33.78
2023-01-07T21:59:31.176Z,33.73
2023-01-07T22:01:58.001Z,33.87
2023-01-07T22:04:24.658Z,34.06
2023-01-07T22:06:51.358Z,33.94
2023-01-07T22:09:18.177Z,33.81
2023-01-07T22:11:45.251Z,33.96
2023-01-07T22:14:14.147Z,34.05
2023-01-07T22:16:41.384Z,33.94
2023-01-07T22:19:09.970Z,33.59
2023-01-07T22:21:37.054Z,33.86
2023-01-07T22:24:03.960Z,34.08
2023-01-07T22:26:30.783Z,34.06
2023-01-07T22:29:02.899Z,33.95
2023-01-07T22:31:36.554Z,34.15
2023-01-07T22:34:04.058Z,34.09
2023-01-07T22:37:04.726Z,34.03
2023-01-07T22:39:46.874Z,34.17
2023-01-07T22:42:41.418Z,34.34
2023-01-07T22:45:11.013Z,34.38
2023-01-07T22:47:38.682Z,34.11
2023-01-07T22:50:06.148Z,34.49
2023-01-07T22:52:32.735Z,34.56
2023-01-07T22:54:59.347Z,34.36
2023-01-07T22:57:26.018Z,34.46
2023-01-07T22:59:52.675Z,34.50
2023-01-07T23:02:19.320Z,34.43
2023-01-07T23:04:46.104Z,34.43
2023-01-07T23:07:12.784Z,34.55
2023-01-07T23:09:40.114Z,34.68
2023-01-07T23:12:06.873Z,34.63
2023-01-07T23:14:33.497Z,34.63
2023-01-07T23:17:00.233Z,34.61
2023-01-07T23:19:26.822Z,34.72
2023-01-07T23:21:53.829Z,34.92
2023-01-07T23:24:20.809Z,34.85
2023-01-07T23:26:48.410Z,34.81
2023-01-07T23:29:15.076Z,34.85
2023-01-07T23:31:41.852Z,34.91
2023-01-07T23:34:08.757Z,34.93
2023-01-07T23:36:38.291Z,35.14
2023-01-07T23:39:05.404Z,34.90
2023-01-07T23:41:32.089Z,34.93
2023-01-07T23:43:59.188Z,35.02
2023-01-07T23:46:25.818Z,35.12
2023-01-07T23:48:52.440Z,35.28
2023-01-07T23:51:19.933Z,35.06
2023-01-07T23:53:46.617Z,35.18
2023-01-07T23:56:13.652Z,35.16
2023-01-07T23:58:40.359Z,35.29
